Time;durP1;ratioP1;P1;durP2;ratioP2;P2;SDS_P1;SDS_P2;PMS_P1;PMS_P2;Temp;Humidity;BMP_temperature;BMP_pressure;BME280_temperature;BME280_humidity;BME280_pressure;Samples;Min_cycle;Max_cycle;Signal;HPM_P1;HPM_P2
2021/12/05 00:21:40;;;;;;;27.38;11.25;;;;;;;;;;6068850;23;20594;-89
2021/12/05 00:24:12;;;;;;;24.80;11.68;;;;;;;;;;6068192;23;20014;-89
2021/12/05 00:26:38;;;;;;;28.50;11.73;;;;;;;;;;6044428;23;20126;-89
2021/12/05 00:29:17;;;;;;;26.05;11.95;;;;;;;;;;6067425;23;20018;-90
2021/12/05 00:32:08;;;;;;;26.73;11.50;;;;;;;;;;6044026;23;20028;-90
2021/12/05 00:35:23;;;;;;;22.77;11.27;;;;;;;;;;6044172;23;20089;-90
2021/12/05 00:43:17;;;;;;;29.75;12.35;;;;;;;;;;6067970;23;20026;-90
2021/12/05 00:46:18;;;;;;;28.77;12.55;;;;;;;;;;6067540;23;20022;-90
2021/12/05 00:48:52;;;;;;;27.58;12.13;;;;;;;;;;6067748;23;20058;-90
2021/12/05 01:10:14;;;;;;;20.40;10.55;;;;;;;;;;6019457;23;20054;-90
2021/12/05 01:15:26;;;;;;;;;;;;;;;;;;6068178;23;20041;-90
2021/12/05 01:18:14;;;;;;;28.48;10.20;;;;;;;;;;6043865;23;19917;-90
2021/12/05 01:20:42;;;;;;;21.02;9.88;;;;;;;;;;6044027;23;20019;-89
2021/12/05 01:23:18;;;;;;;25.48;9.27;;;;;;;;;;6043745;23;20044;-90
2021/12/05 01:28:36;;;;;;;19.75;9.18;;;;;;;;;;6067358;23;20025;-90
2021/12/05 01:31:18;;;;;;;23.35;9.52;;;;;;;;;;6043168;23;20019;-90
2021/12/05 01:39:08;;;;;;;19.77;10.05;;;;;;;;;;6067558;23;20031;-90
2021/12/05 01:52:53;;;;;;;22.83;9.82;;;;;;;;;;6067485;23;20417;-91
2021/12/05 02:01:14;;;;;;;26.35;9.63;;;;;;;;;;5979971;23;20126;-90
2021/12/05 02:39:14;;;;;;;39.83;16.20;;;;;;;;;;6066480;23;20022;-90
2021/12/05 02:41:43;;;;;;;38.58;16.98;;;;;;;;;;6067129;23;20029;-89
2021/12/05 02:44:24;;;;;;;43.72;18.15;;;;;;;;;;6042847;23;20061;-89
2021/12/05 02:46:59;;;;;;;46.70;20.08;;;;;;;;;;6066724;23;20478;-90
2021/12/05 02:49:25;;;;;;;44.53;18.42;;;;;;;;;;6067163;23;20014;-89
2021/12/05 02:51:56;;;;;;;50.65;20.85;;;;;;;;;;6066778;23;20491;-90
2021/12/05 02:54:24;;;;;;;50.83;20.52;;;;;;;;;;6042584;23;20077;-89
2021/12/05 02:56:51;;;;;;;44.63;19.70;;;;;;;;;;6042756;23;20026;-90
2021/12/05 02:59:26;;;;;;;52.65;20.65;;;;;;;;;;6067165;23;20019;-90
2021/12/05 03:01:58;;;;;;;48.83;19.88;;;;;;;;;;6066803;23;20072;-89
2021/12/05 03:04:28;;;;;;;48.70;21.52;;;;;;;;;;6067006;23;20092;-89
2021/12/05 03:06:55;;;;;;;43.85;20.23;;;;;;;;;;6066543;23;20077;-90
2021/12/05 03:09:22;;;;;;;47.22;21.88;;;;;;;;;;6042382;23;20022;-90
2021/12/05 03:11:49;;;;;;;45.15;21.98;;;;;;;;;;6042649;23;20010;-89
2021/12/05 03:14:15;;;;;;;47.63;21.33;;;;;;;;;;6042715;23;20022;-90
2021/12/05 03:16:41;;;;;;;43.22;20.88;;;;;;;;;;6042768;23;20034;-90
2021/12/05 03:19:08;;;;;;;42.35;20.73;;;;;;;;;;6042898;23;20451;-90
2021/12/05 03:21:34;;;;;;;45.75;20.85;;;;;;;;;;6043434;23;20101;-90
2021/12/05 03:24:01;;;;;;;47.00;20.95;;;;;;;;;;6067435;23;20409;-90
2021/12/05 03:26:30;;;;;;;44.58;20.98;;;;;;;;;;6044647;23;20052;-90
2021/12/05 03:28:57;;;;;;;46.08;19.60;;;;;;;;;;6044427;23;20010;-90
2021/12/05 03:31:24;;;;;;;42.45;19.95;;;;;;;;;;6068466;23;20022;-89
2021/12/05 03:33:50;;;;;;;45.80;19.90;;;;;;;;;;6044629;23;20018;-90
2021/12/05 03:36:16;;;;;;;47.30;20.67;;;;;;;;;;6044671;23;20505;-90
2021/12/05 03:38:42;;;;;;;49.83;19.38;;;;;;;;;;6044170;23;20019;-90
2021/12/05 03:41:09;;;;;;;39.50;18.92;;;;;;;;;;6044944;23;20019;-90
2021/12/05 03:43:36;;;;;;;41.72;19.30;;;;;;;;;;6068695;23;20015;-90
2021/12/05 03:46:02;;;;;;;38.00;19.40;;;;;;;;;;6044549;23;20030;-90
2021/12/05 03:48:31;;;;;;;45.00;20.33;;;;;;;;;;6044595;23;20018;-90
2021/12/05 03:50:58;;;;;;;43.83;18.48;;;;;;;;;;6043252;23;20047;-90
2021/12/05 03:53:24;;;;;;;39.33;19.38;;;;;;;;;;6043916;23;20077;-90
2021/12/05 03:55:53;;;;;;;38.80;18.15;;;;;;;;;;6044222;23;20026;-90
2021/12/05 03:58:19;;;;;;;37.25;17.77;;;;;;;;;;6044753;23;20018;-89
2021/12/05 04:00:47;;;;;;;41.33;17.15;;;;;;;;;;6044559;23;20018;-89
2021/12/05 04:03:15;;;;;;;41.63;16.23;;;;;;;;;;6043844;23;20538;-89
2021/12/05 04:05:41;;;;;;;40.03;16.77;;;;;;;;;;6067247;23;20014;-90
2021/12/05 04:08:10;;;;;;;37.78;18.63;;;;;;;;;;6067667;23;20102;-88
2021/12/05 04:10:37;;;;;;;43.03;17.95;;;;;;;;;;6044229;23;20037;-88
2021/12/05 04:13:04;;;;;;;40.35;16.80;;;;;;;;;;6044268;23;20023;-89
2021/12/05 04:15:30;;;;;;;37.03;16.63;;;;;;;;;;6044232;23;20018;-90
2021/12/05 04:17:56;;;;;;;34.65;15.98;;;;;;;;;;6044290;23;20124;-90
2021/12/05 04:20:24;;;;;;;43.70;16.65;;;;;;;;;;6067712;23;20014;-89
2021/12/05 04:22:50;;;;;;;39.13;15.55;;;;;;;;;;6043942;23;20022;-90
2021/12/05 04:25:17;;;;;;;32.22;15.52;;;;;;;;;;6043869;23;20085;-90
2021/12/05 04:27:45;;;;;;;35.22;16.50;;;;;;;;;;6043992;23;20022;-89
2021/12/05 04:30:12;;;;;;;32.60;14.02;;;;;;;;;;6044481;23;20069;-90
2021/12/05 04:32:38;;;;;;;42.13;15.25;;;;;;;;;;6068092;23;20018;-89
2021/12/05 04:35:04;;;;;;;36.05;13.88;;;;;;;;;;6043480;23;20038;-90
2021/12/05 04:37:30;;;;;;;31.88;14.23;;;;;;;;;;6043878;23;20025;-90
2021/12/05 04:39:56;;;;;;;31.17;14.00;;;;;;;;;;6043908;23;20058;-90
2021/12/05 04:42:23;;;;;;;24.67;12.60;;;;;;;;;;6044305;23;20045;-89
2021/12/05 04:44:49;;;;;;;34.47;14.45;;;;;;;;;;6067719;23;20074;-89
2021/12/05 04:47:15;;;;;;;31.55;13.50;;;;;;;;;;6067997;23;20055;-90
2021/12/05 04:49:41;;;;;;;28.05;12.80;;;;;;;;;;6067371;23;20121;-90
2021/12/05 04:52:09;;;;;;;29.05;13.25;;;;;;;;;;6068061;23;20117;-90
2021/12/05 04:54:35;;;;;;;37.33;13.32;;;;;;;;;;6044022;23;20461;-90
2021/12/05 04:57:01;;;;;;;30.73;12.27;;;;;;;;;;6044045;23;20873;-90
2021/12/05 04:59:29;;;;;;;25.67;11.73;;;;;;;;;;6067723;23;20010;-89
2021/12/05 05:01:59;;;;;;;24.70;12.63;;;;;;;;;;6067484;23;20019;-90
2021/12/05 05:04:28;;;;;;;31.63;12.60;;;;;;;;;;6067544;23;20066;-90
2021/12/05 05:06:59;;;;;;;29.30;12.20;;;;;;;;;;6067616;23;20358;-89
2021/12/05 05:09:26;;;;;;;29.45;11.43;;;;;;;;;;6067700;23;20018;-90
2021/12/05 05:11:52;;;;;;;29.20;11.05;;;;;;;;;;6067498;23;20045;-90
2021/12/05 05:14:18;;;;;;;29.30;12.52;;;;;;;;;;6067622;23;20015;-90
2021/12/05 05:16:46;;;;;;;27.27;11.50;;;;;;;;;;6067368;23;20054;-89
2021/12/05 05:19:15;;;;;;;35.33;12.27;;;;;;;;;;6043209;23;20014;-89
2021/12/05 05:21:50;;;;;;;25.30;11.63;;;;;;;;;;6043584;23;20069;-90
2021/12/05 05:27:33;;;;;;;31.17;11.60;;;;;;;;;;6067261;23;20510;-90
2021/12/05 05:44:04;;;;;;;29.58;11.45;;;;;;;;;;6067476;23;20033;-90
2021/12/05 05:49:19;;;;;;;35.47;11.80;;;;;;;;;;6067147;23;20114;-90
2021/12/05 05:51:45;;;;;;;23.50;11.07;;;;;;;;;;6043189;23;20482;-90
2021/12/05 05:54:11;;;;;;;27.88;11.02;;;;;;;;;;6043711;23;20087;-90
2021/12/05 05:56:39;;;;;;;29.55;11.40;;;;;;;;;;6067701;23;20010;-90
2021/12/05 05:59:14;;;;;;;23.20;10.70;;;;;;;;;;6043432;23;20014;-89
2021/12/05 06:01:59;;;;;;;26.33;11.07;;;;;;;;;;6043657;23;20028;-90
2021/12/05 06:04:25;;;;;;;36.08;11.25;;;;;;;;;;6043718;23;20026;-90
2021/12/05 06:06:51;;;;;;;29.35;11.75;;;;;;;;;;6042915;23;20018;-90
2021/12/05 06:09:17;;;;;;;27.50;10.27;;;;;;;;;;6043163;23;20041;-89
2021/12/05 06:11:43;;;;;;;23.17;10.60;;;;;;;;;;6043181;23;20061;-89
2021/12/05 06:14:09;;;;;;;37.83;11.60;;;;;;;;;;6043218;23;20418;-89
2021/12/05 06:16:35;;;;;;;26.55;10.90;;;;;;;;;;6042494;23;20046;-89
2021/12/05 06:19:01;;;;;;;32.83;11.23;;;;;;;;;;6043200;23;20081;-90
2021/12/05 06:21:27;;;;;;;31.83;11.98;;;;;;;;;;6043116;23;20454;-89
2021/12/05 06:23:53;;;;;;;31.52;11.90;;;;;;;;;;6043042;23;20010;-89
2021/12/05 06:26:23;;;;;;;35.85;12.48;;;;;;;;;;6043054;23;20530;-89
2021/12/05 06:39:29;;;;;;;31.35;10.75;;;;;;;;;;6067127;23;20023;-90
2021/12/05 06:47:12;;;;;;;33.13;11.57;;;;;;;;;;6066426;23;20077;-89
2021/12/05 06:49:39;;;;;;;34.72;12.10;;;;;;;;;;6043285;23;20359;-89
2021/12/05 06:52:07;;;;;;;38.53;12.35;;;;;;;;;;6042546;23;20060;-89
2021/12/05 06:54:33;;;;;;;31.40;11.30;;;;;;;;;;6043130;23;20406;-89
2021/12/05 06:56:59;;;;;;;32.03;13.27;;;;;;;;;;6042693;23;20022;-89
2021/12/05 06:59:25;;;;;;;34.67;11.73;;;;;;;;;;6043728;23;20018;-90
2021/12/05 07:01:51;;;;;;;46.08;14.00;;;;;;;;;;6043498;23;20025;-88
2021/12/05 07:07:03;;;;;;;35.25;12.73;;;;;;;;;;6067806;23;20606;-89
2021/12/05 07:09:29;;;;;;;41.97;13.88;;;;;;;;;;6045070;23;20025;-89
2021/12/05 07:14:52;;;;;;;30.33;12.80;;;;;;;;;;5981083;23;20023;-89
2021/12/05 07:22:32;;;;;;;39.15;14.30;;;;;;;;;;5982087;23;20047;-90
2021/12/05 07:25:10;;;;;;;38.88;14.15;;;;;;;;;;5981559;23;20075;-89
2021/12/05 07:42:05;;;;;;;39.40;14.82;;;;;;;;;;5981576;23;20102;-89
2021/12/05 07:43:59;;;;;;;39.35;15.07;;;;;;;;;;5971142;23;20031;-89
2021/12/05 07:46:25;;;;;;;44.92;15.52;;;;;;;;;;5981874;23;20019;-89
2021/12/05 07:48:51;;;;;;;34.28;14.63;;;;;;;;;;5981437;23;20024;-88
2021/12/05 07:56:39;;;;;;;36.83;15.00;;;;;;;;;;6068296;23;20027;-89
2021/12/05 07:59:19;;;;;;;37.60;14.95;;;;;;;;;;6067409;23;20023;-89
2021/12/05 08:15:34;;;;;;;43.33;14.57;;;;;;;;;;6068011;23;20054;-89
2021/12/05 08:18:00;;;;;;;36.55;14.25;;;;;;;;;;6067754;23;20111;-88
2021/12/05 08:20:31;;;;;;;34.47;15.05;;;;;;;;;;6044376;23;20049;-88
2021/12/05 08:22:59;;;;;;;43.67;15.23;;;;;;;;;;6044111;23;20026;-90
2021/12/05 08:25:28;;;;;;;41.47;15.77;;;;;;;;;;6044205;23;20026;-90
2021/12/05 08:28:02;;;;;;;32.42;13.88;;;;;;;;;;6043610;23;20473;-90
2021/12/05 08:30:35;;;;;;;40.10;15.00;;;;;;;;;;6043781;23;20018;-90
2021/12/05 08:39:03;;;;;;;42.60;16.80;;;;;;;;;;6067264;23;20168;-88
2021/12/05 08:41:33;;;;;;;34.65;15.57;;;;;;;;;;6066427;23;20030;-85
2021/12/05 09:25:15;;;;;;;39.33;14.82;;;;;;;;;;6061344;23;20022;-86
2021/12/05 10:08:52;;;;;;;;;;;;;;;;;;5951474;24;20473;-85
2021/12/05 10:14:10;;;;;;;26.98;11.52;;;;;;;;;;5953859;23;20096;-86
2021/12/05 10:16:47;;;;;;;22.02;12.02;;;;;;;;;;6037125;23;20066;-86
2021/12/05 10:38:45;;;;;;;26.15;11.52;;;;;;;;;;5951112;24;20028;-87
2021/12/05 10:43:40;;;;;;;28.35;11.73;;;;;;;;;;5951924;24;20028;-88
2021/12/05 10:46:08;;;;;;;25.50;11.45;;;;;;;;;;5951866;24;20366;-88
2021/12/05 10:48:38;;;;;;;27.00;11.90;;;;;;;;;;5951906;24;20016;-89
2021/12/05 10:51:09;;;;;;;22.90;10.85;;;;;;;;;;5951694;24;20024;-87
2021/12/05 10:53:53;;;;;;;24.48;11.90;;;;;;;;;;5950483;24;20081;-86
2021/12/05 10:56:26;;;;;;;27.52;11.10;;;;;;;;;;5951536;24;20021;-88
2021/12/05 10:59:08;;;;;;;21.63;11.90;;;;;;;;;;5950973;24;20545;-87
2021/12/05 11:01:48;;;;;;;23.67;10.38;;;;;;;;;;5952299;24;20020;-92
2021/12/05 11:04:30;;;;;;;24.33;10.88;;;;;;;;;;5952484;24;20032;-90
2021/12/05 11:06:56;;;;;;;21.73;10.15;;;;;;;;;;5951303;24;20020;-90
2021/12/05 11:09:28;;;;;;;20.80;10.90;;;;;;;;;;5973176;23;20217;-90
2021/12/05 11:12:03;;;;;;;24.73;11.10;;;;;;;;;;6037900;23;20037;-90
2021/12/05 11:14:30;;;;;;;26.13;10.85;;;;;;;;;;6014613;23;20023;-90
2021/12/05 11:16:59;;;;;;;21.83;11.20;;;;;;;;;;6014099;23;20325;-90
2021/12/05 11:19:30;;;;;;;19.33;10.32;;;;;;;;;;6014356;23;20400;-90
2021/12/05 11:22:00;;;;;;;25.05;10.10;;;;;;;;;;6013976;23;20015;-90
2021/12/05 11:24:31;;;;;;;24.02;11.18;;;;;;;;;;6014715;23;20106;-89
2021/12/05 11:27:04;;;;;;;19.25;10.38;;;;;;;;;;6037915;23;20027;-90
2021/12/05 11:29:39;;;;;;;21.33;9.95;;;;;;;;;;6014481;23;20090;-90
2021/12/05 11:32:06;;;;;;;29.20;10.80;;;;;;;;;;6014484;23;20362;-91
2021/12/05 11:34:32;;;;;;;23.23;11.15;;;;;;;;;;6014104;23;20014;-91
2021/12/05 11:36:58;;;;;;;18.60;9.65;;;;;;;;;;6013692;23;20026;-91
2021/12/05 11:39:25;;;;;;;20.23;10.30;;;;;;;;;;6013909;23;20043;-90
2021/12/05 11:41:51;;;;;;;24.13;9.68;;;;;;;;;;6014239;23;20027;-90
2021/12/05 11:44:19;;;;;;;24.17;10.15;;;;;;;;;;6013944;23;20015;-90
2021/12/05 11:46:45;;;;;;;19.20;10.32;;;;;;;;;;6015314;23;20050;-89
2021/12/05 11:49:18;;;;;;;17.95;10.02;;;;;;;;;;6016117;23;20154;-89
2021/12/05 11:51:49;;;;;;;19.88;11.10;;;;;;;;;;6015184;23;20092;-89
2021/12/05 11:54:18;;;;;;;16.90;9.23;;;;;;;;;;6040009;23;20022;-91
2021/12/05 11:56:44;;;;;;;20.92;10.50;;;;;;;;;;6015753;23;20019;-90
2021/12/05 11:59:10;;;;;;;23.50;11.20;;;;;;;;;;6016191;23;20026;-92
2021/12/05 12:01:47;;;;;;;18.88;9.77;;;;;;;;;;6016142;23;20018;-91
2021/12/05 12:04:14;;;;;;;21.30;10.45;;;;;;;;;;6016046;23;20073;-91
2021/12/05 12:06:42;;;;;;;25.77;10.45;;;;;;;;;;6038867;23;20425;-90
2021/12/05 12:09:08;;;;;;;20.25;11.13;;;;;;;;;;6015987;23;20596;-90
2021/12/05 12:11:34;;;;;;;19.95;10.05;;;;;;;;;;6039951;23;20030;-91
2021/12/05 12:14:01;;;;;;;22.98;11.02;;;;;;;;;;6010483;23;20110;-88
2021/12/05 12:16:33;;;;;;;23.17;10.90;;;;;;;;;;6015390;23;20029;-90
2021/12/05 12:18:59;;;;;;;19.15;10.95;;;;;;;;;;6014626;23;20558;-91
2021/12/05 12:21:33;;;;;;;21.00;10.75;;;;;;;;;;6015708;23;20098;-91
2021/12/05 12:24:00;;;;;;;22.00;10.57;;;;;;;;;;6015815;23;20026;-90
2021/12/05 12:26:26;;;;;;;21.73;10.85;;;;;;;;;;6015330;23;20019;-90
2021/12/05 12:28:56;;;;;;;25.63;10.77;;;;;;;;;;6015329;23;20037;-91
2021/12/05 12:31:25;;;;;;;17.05;9.68;;;;;;;;;;6015825;23;20086;-91
2021/12/05 12:33:53;;;;;;;18.33;10.55;;;;;;;;;;6014788;23;20114;-90
2021/12/05 12:36:38;;;;;;;19.05;10.13;;;;;;;;;;6039220;23;20023;-91
2021/12/05 12:39:27;;;;;;;20.13;9.95;;;;;;;;;;6015408;23;20015;-90
2021/12/05 12:42:12;;;;;;;19.48;9.73;;;;;;;;;;5997406;23;20019;-91
2021/12/05 12:44:55;;;;;;;17.75;9.50;;;;;;;;;;6015636;23;20408;-90
2021/12/05 12:47:28;;;;;;;21.63;9.57;;;;;;;;;;6014748;23;20026;-90
2021/12/05 12:49:54;;;;;;;17.55;9.95;;;;;;;;;;6014673;23;20019;-90
2021/12/05 12:52:20;;;;;;;15.98;9.02;;;;;;;;;;6015850;23;20030;-90
2021/12/05 12:54:55;;;;;;;16.58;8.10;;;;;;;;;;6015219;23;20018;-90
2021/12/05 12:57:27;;;;;;;24.52;8.52;;;;;;;;;;6038733;23;20019;-91
2021/12/05 13:00:00;;;;;;;14.20;8.90;;;;;;;;;;6014982;23;20015;-90
2021/12/05 13:02:55;;;;;;;16.98;8.77;;;;;;;;;;6015109;23;20075;-90
2021/12/05 13:11:12;;;;;;;15.85;8.20;;;;;;;;;;6038327;23;20023;-90
2021/12/05 13:13:39;;;;;;;14.10;7.25;;;;;;;;;;6039096;23;20022;-91
2021/12/05 13:16:11;;;;;;;12.55;7.55;;;;;;;;;;6014572;23;20077;-90
2021/12/05 13:18:40;;;;;;;13.30;7.43;;;;;;;;;;6014900;23;20019;-90
2021/12/05 13:21:08;;;;;;;12.35;7.40;;;;;;;;;;6015480;23;20046;-90
2021/12/05 13:23:37;;;;;;;14.73;7.95;;;;;;;;;;6015321;23;20150;-91
2021/12/05 13:26:23;;;;;;;12.68;7.82;;;;;;;;;;6014814;23;20046;-91
2021/12/05 13:28:49;;;;;;;14.68;7.85;;;;;;;;;;6015022;23;20022;-90
2021/12/05 13:31:27;;;;;;;12.32;6.90;;;;;;;;;;6038648;23;20018;-91
2021/12/05 13:34:12;;;;;;;11.77;7.38;;;;;;;;;;6014683;23;20022;-90
2021/12/05 13:36:39;;;;;;;14.50;7.03;;;;;;;;;;6015215;23;20023;-91
2021/12/05 13:39:25;;;;;;;10.60;7.22;;;;;;;;;;6038565;23;20015;-91
2021/12/05 13:41:59;;;;;;;13.10;7.97;;;;;;;;;;6014867;23;20030;-91
2021/12/05 13:44:25;;;;;;;11.30;7.80;;;;;;;;;;6014837;23;20018;-90
2021/12/05 13:46:53;;;;;;;12.07;8.05;;;;;;;;;;6014310;23;20065;-90
2021/12/05 13:49:35;;;;;;;12.13;8.18;;;;;;;;;;6015343;23;20508;-90
2021/12/05 13:52:35;;;;;;;13.25;8.40;;;;;;;;;;6014729;23;20165;-91
2021/12/05 13:55:20;;;;;;;12.00;7.65;;;;;;;;;;5940072;23;20022;-91
2021/12/05 13:58:05;;;;;;;12.73;7.70;;;;;;;;;;6038769;23;20022;-91
2021/12/05 14:00:51;;;;;;;15.45;8.00;;;;;;;;;;6014445;23;20030;-90
2021/12/05 14:03:36;;;;;;;11.60;7.90;;;;;;;;;;6038439;23;20019;-90
2021/12/05 14:06:02;;;;;;;12.68;8.23;;;;;;;;;;6038207;23;20027;-91
2021/12/05 14:08:28;;;;;;;16.70;9.13;;;;;;;;;;6014713;23;20015;-90
2021/12/05 14:10:54;;;;;;;29.48;13.60;;;;;;;;;;6014603;23;20039;-91
2021/12/05 14:13:23;;;;;;;17.52;8.95;;;;;;;;;;6038667;23;20019;-91
2021/12/05 14:15:58;;;;;;;14.30;8.35;;;;;;;;;;6037571;23;20054;-91
2021/12/05 14:18:24;;;;;;;14.00;8.32;;;;;;;;;;6038658;23;20471;-90
2021/12/05 14:20:50;;;;;;;12.80;8.73;;;;;;;;;;6014386;23;20094;-91
2021/12/05 14:23:21;;;;;;;13.50;8.43;;;;;;;;;;6038426;23;20023;-90
2021/12/05 14:25:47;;;;;;;14.05;8.43;;;;;;;;;;6014367;23;20022;-90
2021/12/05 14:28:13;;;;;;;14.43;7.70;;;;;;;;;;6014578;23;20197;-91
2021/12/05 14:30:40;;;;;;;14.35;8.20;;;;;;;;;;6037958;23;20019;-90
2021/12/05 14:33:06;;;;;;;15.18;8.80;;;;;;;;;;6038544;23;20074;-90
2021/12/05 14:35:37;;;;;;;15.35;8.60;;;;;;;;;;6038413;23;20061;-90
2021/12/05 14:38:06;;;;;;;14.00;10.10;;;;;;;;;;6037764;23;20018;-90
2021/12/05 14:40:33;;;;;;;14.82;9.38;;;;;;;;;;6014806;23;20099;-90
2021/12/05 14:43:03;;;;;;;17.05;10.13;;;;;;;;;;6014446;23;20298;-90
2021/12/05 14:45:30;;;;;;;14.10;9.65;;;;;;;;;;6038024;23;20011;-91
2021/12/05 14:48:02;;;;;;;15.38;10.07;;;;;;;;;;6014251;23;20029;-91
2021/12/05 14:50:32;;;;;;;14.35;10.25;;;;;;;;;;6014539;23;20021;-91
2021/12/05 14:53:00;;;;;;;13.88;9.85;;;;;;;;;;6014501;23;20018;-90
2021/12/05 14:55:28;;;;;;;13.43;9.60;;;;;;;;;;6014669;23;20073;-91
2021/12/05 14:57:56;;;;;;;14.73;9.77;;;;;;;;;;6038021;23;20018;-90
2021/12/05 15:00:24;;;;;;;15.18;10.00;;;;;;;;;;6014246;23;20023;-90
2021/12/05 15:02:59;;;;;;;13.65;9.85;;;;;;;;;;6014245;23;20058;-90
2021/12/05 15:05:25;;;;;;;13.90;9.48;;;;;;;;;;6014502;23;20139;-90
2021/12/05 15:07:59;;;;;;;15.98;10.40;;;;;;;;;;6014132;23;20030;-91
2021/12/05 15:10:25;;;;;;;30.50;19.08;;;;;;;;;;6014415;23;20057;-90
2021/12/05 15:12:53;;;;;;;24.80;16.77;;;;;;;;;;6038003;23;20027;-91
2021/12/05 15:15:19;;;;;;;20.40;12.02;;;;;;;;;;6014639;23;20019;-91
2021/12/05 15:17:45;;;;;;;19.35;11.75;;;;;;;;;;6014603;23;20018;-91
2021/12/05 15:20:13;;;;;;;19.73;11.48;;;;;;;;;;6015425;23;20127;-90
2021/12/05 15:22:40;;;;;;;16.75;10.30;;;;;;;;;;6016780;23;20015;-90
2021/12/05 15:25:07;;;;;;;14.30;9.48;;;;;;;;;;6015608;23;20060;-90
2021/12/05 15:27:34;;;;;;;17.05;10.32;;;;;;;;;;6015507;23;20087;-91
2021/12/05 15:30:04;;;;;;;13.82;10.48;;;;;;;;;;6015826;23;20014;-91
2021/12/05 15:32:32;;;;;;;16.65;11.35;;;;;;;;;;6016367;23;20452;-91
2021/12/05 15:35:03;;;;;;;17.52;10.68;;;;;;;;;;6016010;23;20025;-90
2021/12/05 15:37:29;;;;;;;18.73;11.32;;;;;;;;;;6016252;23;20455;-90
2021/12/05 15:39:57;;;;;;;16.00;11.20;;;;;;;;;;6015574;23;20019;-90
2021/12/05 15:42:24;;;;;;;18.00;11.00;;;;;;;;;;6015327;23;20098;-91
2021/12/05 15:44:51;;;;;;;17.90;10.73;;;;;;;;;;6015935;23;20363;-90
2021/12/05 15:47:28;;;;;;;15.82;10.05;;;;;;;;;;6016442;23;20022;-91
2021/12/05 15:49:58;;;;;;;16.98;10.00;;;;;;;;;;6039839;23;20021;-90
2021/12/05 15:52:26;;;;;;;16.73;9.93;;;;;;;;;;6016172;23;20014;-91
2021/12/05 15:54:53;;;;;;;18.95;10.77;;;;;;;;;;6015763;23;20019;-90
2021/12/05 15:57:27;;;;;;;17.27;10.85;;;;;;;;;;6015467;23;20026;-88
2021/12/05 15:59:54;;;;;;;19.13;10.43;;;;;;;;;;6039488;23;20021;-90
2021/12/05 16:02:21;;;;;;;21.10;12.43;;;;;;;;;;6039633;23;20476;-90
2021/12/05 16:04:47;;;;;;;22.92;13.23;;;;;;;;;;6016304;23;20019;-91
2021/12/05 16:07:14;;;;;;;20.92;11.68;;;;;;;;;;6015552;23;20060;-90
2021/12/05 16:09:41;;;;;;;19.15;12.07;;;;;;;;;;6016004;23;20478;-91
2021/12/05 16:12:18;;;;;;;19.70;11.90;;;;;;;;;;6015253;23;20022;-90
2021/12/05 16:14:45;;;;;;;17.02;10.10;;;;;;;;;;6015685;23;20030;-90
2021/12/05 16:17:23;;;;;;;16.90;10.60;;;;;;;;;;6039542;23;20015;-90
2021/12/05 16:20:06;;;;;;;17.02;10.73;;;;;;;;;;6015919;23;20023;-90
2021/12/05 16:22:32;;;;;;;19.98;12.13;;;;;;;;;;6015965;23;20023;-90
2021/12/05 16:24:58;;;;;;;20.08;12.32;;;;;;;;;;6015904;23;20019;-90
2021/12/05 16:27:24;;;;;;;23.88;12.65;;;;;;;;;;6015277;23;20022;-89
2021/12/05 16:29:50;;;;;;;17.65;11.50;;;;;;;;;;6039377;23;20019;-91
2021/12/05 16:32:16;;;;;;;16.33;10.45;;;;;;;;;;6038783;23;20029;-90
2021/12/05 16:34:46;;;;;;;17.35;10.73;;;;;;;;;;6015833;23;20019;-91
2021/12/05 16:37:13;;;;;;;17.00;10.20;;;;;;;;;;6015758;23;20015;-90
2021/12/05 16:39:43;;;;;;;18.52;10.27;;;;;;;;;;6015817;23;20014;-90
2021/12/05 16:42:14;;;;;;;16.67;9.90;;;;;;;;;;6015201;23;20014;-90
2021/12/05 16:44:41;;;;;;;18.52;11.15;;;;;;;;;;6015622;23;20050;-90
2021/12/05 16:47:12;;;;;;;17.67;10.70;;;;;;;;;;6015629;23;20506;-90
2021/12/05 16:49:46;;;;;;;21.02;10.40;;;;;;;;;;6015905;23;20347;-90
2021/12/05 16:52:18;;;;;;;18.85;10.07;;;;;;;;;;6015724;23;20023;-90
2021/12/05 16:54:54;;;;;;;21.23;12.60;;;;;;;;;;6014808;23;20019;-91
2021/12/05 16:57:23;;;;;;;28.42;13.00;;;;;;;;;;6015833;23;20053;-91
2021/12/05 16:59:50;;;;;;;25.30;12.88;;;;;;;;;;6015362;23;20022;-91
2021/12/05 17:02:30;;;;;;;32.15;13.95;;;;;;;;;;6015228;23;20015;-90
2021/12/05 17:05:01;;;;;;;32.55;15.02;;;;;;;;;;6015282;23;20023;-90
2021/12/05 17:07:36;;;;;;;30.73;15.35;;;;;;;;;;6038893;23;20026;-91
2021/12/05 17:10:04;;;;;;;28.60;13.73;;;;;;;;;;6014717;23;20019;-91
2021/12/05 17:12:32;;;;;;;25.30;13.98;;;;;;;;;;6015332;23;20117;-91
2021/12/05 17:15:16;;;;;;;26.90;13.65;;;;;;;;;;6014690;23;20031;-91
2021/12/05 17:17:44;;;;;;;35.60;16.00;;;;;;;;;;6015090;23;20025;-91
2021/12/05 17:20:20;;;;;;;31.95;15.77;;;;;;;;;;6015248;23;20180;-90
2021/12/05 17:22:53;;;;;;;27.77;14.40;;;;;;;;;;6014920;23;20038;-90
2021/12/05 17:25:25;;;;;;;33.75;16.13;;;;;;;;;;6038637;23;20015;-90
2021/12/05 17:27:51;;;;;;;28.48;16.00;;;;;;;;;;6015122;23;20027;-91
2021/12/05 17:30:17;;;;;;;37.78;16.40;;;;;;;;;;6015381;23;20021;-91
2021/12/05 17:32:43;;;;;;;31.27;15.65;;;;;;;;;;6014946;23;20026;-91
2021/12/05 17:35:09;;;;;;;32.65;16.15;;;;;;;;;;6015482;23;20021;-91
2021/12/05 17:37:35;;;;;;;34.10;17.20;;;;;;;;;;6014859;23;20022;-91
2021/12/05 17:40:04;;;;;;;35.50;16.42;;;;;;;;;;6014662;23;20030;-91
2021/12/05 17:42:32;;;;;;;30.60;15.18;;;;;;;;;;6015015;23;20448;-90
2021/12/05 17:44:59;;;;;;;44.17;17.92;;;;;;;;;;6014829;23;20020;-91
2021/12/05 17:47:27;;;;;;;32.03;17.23;;;;;;;;;;6038304;23;20061;-91
2021/12/05 17:49:55;;;;;;;36.97;17.27;;;;;;;;;;6038728;23;20515;-90
2021/12/05 17:52:24;;;;;;;40.95;18.38;;;;;;;;;;6014803;23;20018;-90
2021/12/05 17:57:34;;;;;;;42.28;20.20;;;;;;;;;;6038906;23;20027;-91
2021/12/05 18:00:12;;;;;;;42.47;19.95;;;;;;;;;;6015029;23;20018;-91
2021/12/05 18:02:57;;;;;;;46.50;19.30;;;;;;;;;;6014744;23;20034;-91
2021/12/05 18:05:37;;;;;;;42.67;20.50;;;;;;;;;;6038571;23;20467;-91
2021/12/05 18:08:11;;;;;;;41.47;18.30;;;;;;;;;;6037839;23;20106;-91
2021/12/05 18:10:42;;;;;;;50.15;21.33;;;;;;;;;;6038452;23;20025;-91
2021/12/05 18:13:11;;;;;;;48.80;21.88;;;;;;;;;;6015151;23;20015;-91
2021/12/05 18:15:38;;;;;;;47.78;22.55;;;;;;;;;;6038523;23;20481;-91
2021/12/05 18:18:05;;;;;;;50.47;22.42;;;;;;;;;;6014631;23;20562;-91
2021/12/05 18:20:32;;;;;;;51.00;22.10;;;;;;;;;;6038630;23;20034;-91
2021/12/05 18:23:00;;;;;;;49.95;22.95;;;;;;;;;;6037618;23;20093;-91
2021/12/05 18:25:26;;;;;;;53.38;24.65;;;;;;;;;;6014531;23;20030;-90
2021/12/05 18:27:53;;;;;;;51.30;23.58;;;;;;;;;;6015008;23;20451;-91
2021/12/05 18:30:24;;;;;;;61.28;25.73;;;;;;;;;;6038545;23;20023;-91
2021/12/05 18:32:51;;;;;;;54.17;24.35;;;;;;;;;;6038502;23;20025;-91
2021/12/05 18:35:17;;;;;;;61.00;27.10;;;;;;;;;;6038306;23;20019;-91
2021/12/05 18:37:44;;;;;;;59.78;27.70;;;;;;;;;;6037154;23;20019;-90
2021/12/05 18:40:11;;;;;;;57.17;26.83;;;;;;;;;;6037817;23;20077;-90
2021/12/05 18:42:37;;;;;;;63.65;26.98;;;;;;;;;;6014421;23;20026;-90
2021/12/05 18:45:05;;;;;;;58.40;26.35;;;;;;;;;;6038038;23;20029;-91
2021/12/05 18:47:31;;;;;;;58.28;26.65;;;;;;;;;;6014290;23;20472;-90
2021/12/05 18:49:59;;;;;;;59.17;26.70;;;;;;;;;;6014192;23;20021;-91
2021/12/05 18:52:26;;;;;;;66.35;27.83;;;;;;;;;;6038200;23;20046;-91
2021/12/05 18:54:52;;;;;;;58.45;28.25;;;;;;;;;;6039848;23;20018;-91
2021/12/05 18:57:20;;;;;;;63.22;28.08;;;;;;;;;;6017384;23;20102;-91
2021/12/05 18:59:50;;;;;;;62.78;28.25;;;;;;;;;;6040994;23;20015;-91
2021/12/05 19:05:06;;;;;;;63.92;28.33;;;;;;;;;;6040042;23;20098;-90
2021/12/05 19:07:45;;;;;;;66.35;28.98;;;;;;;;;;6041059;23;20355;-91
2021/12/05 19:12:56;;;;;;;59.58;27.83;;;;;;;;;;6041110;23;20027;-92
2021/12/05 19:15:23;;;;;;;72.20;29.00;;;;;;;;;;6017945;23;20011;-92
2021/12/05 19:17:52;;;;;;;63.40;27.23;;;;;;;;;;6040863;23;20026;-92
2021/12/05 19:20:20;;;;;;;65.95;29.73;;;;;;;;;;6041007;23;20067;-93
2021/12/05 19:22:46;;;;;;;60.83;28.73;;;;;;;;;;6040897;23;20023;-90
2021/12/05 19:25:14;;;;;;;60.47;29.90;;;;;;;;;;6040966;23;20456;-92
2021/12/05 19:27:41;;;;;;;66.05;30.63;;;;;;;;;;6036177;23;20023;-87
2021/12/05 19:30:09;;;;;;;71.55;30.38;;;;;;;;;;6015740;23;20023;-89
2021/12/05 19:32:35;;;;;;;61.08;27.83;;;;;;;;;;6015636;23;20095;-88
2021/12/05 19:35:02;;;;;;;66.07;28.05;;;;;;;;;;6037947;23;20463;-87
2021/12/05 19:37:28;;;;;;;65.72;29.45;;;;;;;;;;6016064;23;20018;-89
2021/12/05 19:39:54;;;;;;;60.05;26.95;;;;;;;;;;6016403;23;20067;-89
2021/12/05 19:42:23;;;;;;;60.47;27.30;;;;;;;;;;6016380;23;20023;-89
2021/12/05 19:44:50;;;;;;;65.75;27.17;;;;;;;;;;6016653;23;20019;-92
2021/12/05 19:47:16;;;;;;;62.70;27.30;;;;;;;;;;6041420;23;20347;-92
2021/12/05 19:49:42;;;;;;;55.97;27.63;;;;;;;;;;6016606;23;20050;-93
2021/12/05 19:52:08;;;;;;;65.95;26.38;;;;;;;;;;6017431;23;20029;-94